createdAt,value
2022-12-25T00:00:44.410Z,0.00
2022-12-25T00:01:44.412Z,0.00
2022-12-25T00:02:44.586Z,0.00
2022-12-25T00:03:44.535Z,0.00
2022-12-25T00:04:44.355Z,0.00
2022-12-25T00:05:44.412Z,0.00
2022-12-25T00:06:44.332Z,0.00
2022-12-25T00:07:44.327Z,0.00
2022-12-25T00:08:44.372Z,0.00
2022-12-25T00:09:44.304Z,0.00
2022-12-25T00:10:45.604Z,0.00
2022-12-25T00:11:44.320Z,0.00
2022-12-25T00:12:44.282Z,0.00
2022-12-25T00:13:44.324Z,0.00
2022-12-25T00:14:44.249Z,0.00
2022-12-25T00:15:44.265Z,0.00
2022-12-25T00:16:44.315Z,0.00
2022-12-25T00:17:44.247Z,0.00
2022-12-25T00:18:44.218Z,0.00
2022-12-25T00:19:44.263Z,0.00
2022-12-25T00:20:44.201Z,0.00
2022-12-25T00:21:44.195Z,0.00
2022-12-25T00:22:44.202Z,0.00
2022-12-25T00:23:44.161Z,0.00
2022-12-25T00:24:44.198Z,0.00
2022-12-25T00:25:44.147Z,0.00
2022-12-25T00:26:44.166Z,0.00
2022-12-25T00:27:44.130Z,0.00
2022-12-25T00:28:44.145Z,0.00
2022-12-25T00:29:44.105Z,0.00
2022-12-25T00:30:44.140Z,0.00
2022-12-25T00:31:44.257Z,0.00
2022-12-25T00:32:44.079Z,0.00
2022-12-25T00:33:44.072Z,0.00
2022-12-25T00:34:44.103Z,0.00
2022-12-25T00:35:44.085Z,0.00
2022-12-25T00:36:44.028Z,0.00
2022-12-25T00:37:44.053Z,0.00
2022-12-25T00:38:44.022Z,0.00
2022-12-25T00:39:44.038Z,0.00
2022-12-25T00:40:44.091Z,0.00
2022-12-25T00:41:44.027Z,0.00
2022-12-25T00:42:43.996Z,0.00
2022-12-25T00:43:43.955Z,0.00
2022-12-25T00:44:43.971Z,0.00
2022-12-25T00:45:43.965Z,0.00
2022-12-25T00:46:43.992Z,0.00
2022-12-25T00:47:43.951Z,0.00
2022-12-25T00:48:43.937Z,0.00
2022-12-25T00:49:43.915Z,0.00
2022-12-25T00:50:43.936Z,0.00
2022-12-25T00:51:43.888Z,0.00
2022-12-25T00:52:43.904Z,0.00
2022-12-25T00:53:43.897Z,0.00
2022-12-25T00:54:43.873Z,0.00
2022-12-25T00:55:43.841Z,0.00
2022-12-25T00:56:43.848Z,0.00
2022-12-25T00:57:43.883Z,0.00
2022-12-25T00:58:43.811Z,0.00
2022-12-25T00:59:43.804Z,0.00
2022-12-25T01:00:43.894Z,0.00
2022-12-25T01:01:43.963Z,0.00
2022-12-25T01:02:43.928Z,0.00
2022-12-25T01:03:43.924Z,0.00
2022-12-25T01:04:43.801Z,0.00
2022-12-25T01:05:43.739Z,0.00
2022-12-25T01:06:43.738Z,0.00
2022-12-25T01:07:43.786Z,0.00
2022-12-25T01:08:43.740Z,0.00
2022-12-25T01:09:43.687Z,0.00
2022-12-25T01:10:43.706Z,0.00
2022-12-25T01:11:43.673Z,0.00
2022-12-25T01:12:43.701Z,0.00
2022-12-25T01:13:43.662Z,0.00
2022-12-25T01:14:43.666Z,0.00
2022-12-25T01:15:43.636Z,0.00
2022-12-25T01:16:43.766Z,0.00
2022-12-25T01:17:43.678Z,0.00
2022-12-25T01:18:43.621Z,0.00
2022-12-25T01:19:43.652Z,0.00
2022-12-25T01:20:43.591Z,0.00
2022-12-25T01:21:43.576Z,0.00
2022-12-25T01:22:43.653Z,0.00
2022-12-25T01:23:43.563Z,0.00
2022-12-25T01:24:43.560Z,0.00
2022-12-25T01:25:43.648Z,0.00
2022-12-25T01:26:43.545Z,0.00
2022-12-25T01:27:43.542Z,0.00
2022-12-25T01:28:43.533Z,0.00
2022-12-25T01:29:43.498Z,0.00
2022-12-25T01:30:43.503Z,0.00
2022-12-25T01:31:43.509Z,0.00
2022-12-25T01:32:43.480Z,0.00
2022-12-25T01:33:43.464Z,0.00
2022-12-25T01:34:43.479Z,0.00
2022-12-25T01:35:43.465Z,0.00
2022-12-25T01:36:43.483Z,0.00
2022-12-25T01:37:43.417Z,0.00
2022-12-25T01:38:43.412Z,0.00
2022-12-25T01:39:43.406Z,0.00
2022-12-25T01:40:43.395Z,0.00
2022-12-25T01:41:43.393Z,0.00
2022-12-25T01:42:43.374Z,0.00
2022-12-25T01:43:43.348Z,0.00
2022-12-25T01:44:43.353Z,0.00
2022-12-25T01:45:43.441Z,0.00
2022-12-25T01:46:43.344Z,0.00
2022-12-25T01:47:43.325Z,0.00
2022-12-25T01:48:43.319Z,0.00
2022-12-25T01:49:43.318Z,0.00
2022-12-25T01:50:43.331Z,0.00
2022-12-25T01:51:43.291Z,0.00
2022-12-25T01:52:43.278Z,0.00
2022-12-25T01:53:43.271Z,0.00
2022-12-25T01:54:43.263Z,0.00
2022-12-25T01:55:43.264Z,0.00
2022-12-25T01:56:43.227Z,0.00
2022-12-25T01:57:43.229Z,0.00
2022-12-25T01:58:43.221Z,0.00
2022-12-25T01:59:43.242Z,0.00
2022-12-25T02:00:43.275Z,0.00
2022-12-25T02:01:43.317Z,0.00
2022-12-25T02:02:43.262Z,0.00
2022-12-25T02:03:43.203Z,0.00
2022-12-25T02:04:43.232Z,0.00
2022-12-25T02:05:43.138Z,0.00
2022-12-25T02:06:43.186Z,0.00
2022-12-25T02:07:43.116Z,0.00
2022-12-25T02:08:43.116Z,0.00
2022-12-25T02:09:43.083Z,0.00
2022-12-25T02:10:43.097Z,0.00
2022-12-25T02:11:43.120Z,0.00
2022-12-25T02:12:43.072Z,0.00
2022-12-25T02:13:43.103Z,0.00
2022-12-25T02:14:43.125Z,0.00
2022-12-25T02:15:43.099Z,0.00
2022-12-25T02:16:56.706Z,0.00
2022-12-25T02:17:43.068Z,0.00
2022-12-25T02:18:43.021Z,0.00
2022-12-25T02:19:43.027Z,0.00
2022-12-25T02:20:43.071Z,0.00
2022-12-25T02:21:42.989Z,0.00
2022-12-25T02:22:43.012Z,0.00
2022-12-25T02:23:43.001Z,0.00
2022-12-25T02:24:42.939Z,0.00
2022-12-25T02:25:42.937Z,0.00
2022-12-25T02:26:43.179Z,0.00
2022-12-25T02:27:42.970Z,0.00
2022-12-25T02:28:45.718Z,0.00
2022-12-25T02:29:42.984Z,0.00
2022-12-25T02:30:42.882Z,0.00
2022-12-25T02:31:42.965Z,0.00
2022-12-25T02:32:42.902Z,0.00
2022-12-25T02:33:42.955Z,0.00
2022-12-25T02:34:42.877Z,0.00
2022-12-25T02:35:42.837Z,0.00
2022-12-25T02:36:42.860Z,0.00
2022-12-25T02:37:42.811Z,0.00
2022-12-25T02:38:42.838Z,0.00
2022-12-25T02:39:42.852Z,0.00
2022-12-25T02:40:42.809Z,0.00
2022-12-25T02:41:42.761Z,0.00
2022-12-25T02:42:42.871Z,0.00
2022-12-25T02:43:42.751Z,0.00
2022-12-25T02:44:42.757Z,0.00
2022-12-25T02:45:42.811Z,0.00
2022-12-25T02:46:42.778Z,0.00
2022-12-25T02:47:42.740Z,0.00
2022-12-25T02:48:42.698Z,0.00
2022-12-25T02:49:42.686Z,0.00
2022-12-25T02:50:42.752Z,0.00
2022-12-25T02:51:42.690Z,0.00
2022-12-25T02:52:42.673Z,0.00
2022-12-25T02:53:42.705Z,0.00
2022-12-25T02:54:42.673Z,0.00
2022-12-25T02:55:42.646Z,0.00
2022-12-25T02:56:42.655Z,0.00
2022-12-25T02:57:42.601Z,0.00
2022-12-25T02:58:42.624Z,0.00
2022-12-25T02:59:42.627Z,0.00
2022-12-25T03:00:42.602Z,0.00
2022-12-25T03:01:42.847Z,0.00
2022-12-25T03:02:42.640Z,0.00
2022-12-25T03:03:42.566Z,0.00
2022-12-25T03:04:42.549Z,0.00
2022-12-25T03:05:42.534Z,0.00
2022-12-25T03:06:42.541Z,0.00
2022-12-25T03:07:42.526Z,0.00
2022-12-25T03:08:42.518Z,0.00
2022-12-25T03:09:42.554Z,0.00
2022-12-25T03:10:42.481Z,0.00
2022-12-25T03:11:42.484Z,0.00
2022-12-25T03:12:42.466Z,0.00
2022-12-25T03:13:42.442Z,0.00
2022-12-25T03:14:42.463Z,0.00
2022-12-25T03:15:42.455Z,0.00
2022-12-25T03:16:42.496Z,0.00
2022-12-25T03:17:42.409Z,0.00
2022-12-25T03:18:42.485Z,0.00
2022-12-25T03:19:42.383Z,0.00
2022-12-25T03:20:42.376Z,0.00
2022-12-25T03:21:42.371Z,0.00
2022-12-25T03:22:42.429Z,0.00
2022-12-25T03:23:42.349Z,0.00
2022-12-25T03:24:42.366Z,0.00
2022-12-25T03:25:42.329Z,0.00
2022-12-25T03:26:42.327Z,0.00
2022-12-25T03:27:42.330Z,0.00
2022-12-25T03:28:42.341Z,0.00
2022-12-25T03:29:42.287Z,0.00
2022-12-25T03:30:42.323Z,0.00
2022-12-25T03:31:42.399Z,0.00
2022-12-25T03:32:42.292Z,0.00
2022-12-25T03:33:45.949Z,0.00
2022-12-25T03:34:42.230Z,0.00
2022-12-25T03:35:42.235Z,0.00
2022-12-25T03:36:42.280Z,0.00
2022-12-25T03:37:42.199Z,0.00
2022-12-25T03:38:42.251Z,0.00
2022-12-25T03:39:42.244Z,0.00
2022-12-25T03:40:42.181Z,0.00
2022-12-25T03:41:42.245Z,0.00
2022-12-25T03:42:42.192Z,0.00
2022-12-25T03:43:42.146Z,0.00
2022-12-25T03:44:42.171Z,0.00
2022-12-25T03:45:42.142Z,0.00
2022-12-25T03:46:42.173Z,0.00
2022-12-25T03:47:42.115Z,0.00
2022-12-25T03:48:42.099Z,0.00
2022-12-25T03:49:42.155Z,0.00
2022-12-25T03:50:42.098Z,0.00
2022-12-25T03:51:42.057Z,0.00
2022-12-25T03:52:42.080Z,0.00
2022-12-25T03:53:42.072Z,0.00
2022-12-25T03:54:42.070Z,0.00
2022-12-25T03:55:42.057Z,0.00
2022-12-25T03:56:42.038Z,0.00
2022-12-25T03:57:42.019Z,0.00
2022-12-25T03:58:42.001Z,0.00
2022-12-25T03:59:41.992Z,0.00
2022-12-25T04:00:41.970Z,0.00
2022-12-25T04:01:42.114Z,0.00
2022-12-25T04:02:42.196Z,0.00
2022-12-25T04:03:42.054Z,0.00
2022-12-25T04:04:41.933Z,0.00
2022-12-25T04:05:41.974Z,0.00
2022-12-25T04:06:41.983Z,0.00
2022-12-25T04:07:41.946Z,0.00
2022-12-25T04:08:41.902Z,0.00
2022-12-25T04:09:41.985Z,0.00
2022-12-25T04:10:41.923Z,0.00
2022-12-25T04:11:41.849Z,0.00
2022-12-25T04:12:41.861Z,0.00
2022-12-25T04:13:41.849Z,0.00
2022-12-25T04:14:41.848Z,0.00
2022-12-25T04:15:41.878Z,0.00
2022-12-25T04:16:41.822Z,0.00
2022-12-25T04:17:41.879Z,0.00
2022-12-25T04:18:41.855Z,0.00
2022-12-25T04:19:41.774Z,0.00
2022-12-25T04:20:41.776Z,0.00
2022-12-25T04:21:41.805Z,0.00
2022-12-25T04:22:41.752Z,0.00
2022-12-25T04:23:41.744Z,0.00
2022-12-25T04:24:41.759Z,0.00
2022-12-25T04:25:41.707Z,0.00
2022-12-25T04:26:41.735Z,0.00
2022-12-25T04:27:41.758Z,0.00
2022-12-25T04:28:41.741Z,0.00
2022-12-25T04:29:41.677Z,0.00
2022-12-25T04:30:41.685Z,0.00
2022-12-25T04:31:41.695Z,0.00
2022-12-25T04:32:41.671Z,0.00
2022-12-25T04:33:41.680Z,0.00
2022-12-25T04:34:41.681Z,0.00
2022-12-25T04:35:41.622Z,0.00
2022-12-25T04:36:41.618Z,0.00
2022-12-25T04:37:41.651Z,0.00
2022-12-25T04:38:41.597Z,0.00
2022-12-25T04:39:41.594Z,0.00
2022-12-25T04:40:41.633Z,0.00
2022-12-25T04:41:41.582Z,0.00
2022-12-25T04:42:41.573Z,0.00
2022-12-25T04:43:41.545Z,0.00
2022-12-25T04:44:41.532Z,0.00
2022-12-25T04:45:41.520Z,0.00
2022-12-25T04:46:41.571Z,0.00
2022-12-25T04:47:41.533Z,0.00
2022-12-25T04:48:41.474Z,0.00
2022-12-25T04:49:41.458Z,0.00
2022-12-25T04:50:41.535Z,0.00
2022-12-25T04:51:41.443Z,0.00
2022-12-25T04:52:41.446Z,0.00
2022-12-25T04:53:41.435Z,0.00
2022-12-25T04:54:41.483Z,0.00
2022-12-25T04:55:41.436Z,0.00
2022-12-25T04:56:45.501Z,0.00
2022-12-25T04:57:41.456Z,0.00
2022-12-25T04:58:41.390Z,0.00
2022-12-25T04:59:41.393Z,0.00
2022-12-25T05:00:41.358Z,0.00
2022-12-25T05:01:41.501Z,0.00
2022-12-25T05:02:41.528Z,0.00
2022-12-25T05:03:41.495Z,0.00
2022-12-25T05:04:41.360Z,0.00
2022-12-25T05:05:41.329Z,0.00
2022-12-25T05:06:41.355Z,0.00
2022-12-25T05:07:41.298Z,0.00
2022-12-25T05:08:41.337Z,0.00
2022-12-25T05:09:41.298Z,0.00
2022-12-25T05:10:41.282Z,0.00
2022-12-25T05:11:41.259Z,0.00
2022-12-25T05:12:41.245Z,0.00
2022-12-25T05:13:41.298Z,0.00
2022-12-25T05:14:41.232Z,0.00
2022-12-25T05:15:41.260Z,0.00
2022-12-25T05:16:41.245Z,0.00
2022-12-25T05:17:41.220Z,0.00
2022-12-25T05:18:41.166Z,0.00
2022-12-25T05:19:41.189Z,0.00
2022-12-25T05:20:41.158Z,0.00
2022-12-25T05:21:41.154Z,0.00
2022-12-25T05:22:41.150Z,0.00
2022-12-25T05:23:41.123Z,0.00
2022-12-25T05:24:41.157Z,0.00
2022-12-25T05:25:41.110Z,0.00
2022-12-25T05:26:41.128Z,0.00
2022-12-25T05:27:41.119Z,0.00
2022-12-25T05:28:41.100Z,0.00
2022-12-25T05:29:41.093Z,0.00
2022-12-25T05:30:41.060Z,0.00
2022-12-25T05:31:41.093Z,0.00
2022-12-25T05:32:41.032Z,0.00
2022-12-25T05:33:41.038Z,0.00
2022-12-25T05:34:41.079Z,0.00
2022-12-25T05:35:41.059Z,0.00
2022-12-25T05:36:41.002Z,0.00
2022-12-25T05:37:41.006Z,0.00
2022-12-25T05:38:41.014Z,0.00
2022-12-25T05:39:41.038Z,0.00
2022-12-25T05:40:40.964Z,0.00
2022-12-25T05:41:40.964Z,0.00
2022-12-25T05:42:40.963Z,0.00
2022-12-25T05:43:40.977Z,0.00
2022-12-25T05:44:40.904Z,0.00
2022-12-25T05:45:40.953Z,0.00
2022-12-25T05:46:40.966Z,0.00
2022-12-25T05:47:40.983Z,0.00
2022-12-25T05:48:40.869Z,0.00
2022-12-25T05:49:40.886Z,0.00
2022-12-25T05:50:40.903Z,0.00
2022-12-25T05:51:40.873Z,0.00
2022-12-25T05:52:40.847Z,0.00
2022-12-25T05:53:40.852Z,0.00
2022-12-25T05:54:40.818Z,0.00
2022-12-25T05:55:40.927Z,0.00
2022-12-25T05:56:40.826Z,0.00
2022-12-25T05:57:40.827Z,0.00
2022-12-25T05:58:40.822Z,0.00
2022-12-25T05:59:40.798Z,0.00
2022-12-25T06:00:40.768Z,0.00
2022-12-25T06:01:40.946Z,0.00
2022-12-25T06:02:40.955Z,0.00
2022-12-25T06:03:40.784Z,0.00
2022-12-25T06:04:40.706Z,0.00
2022-12-25T06:05:40.770Z,0.00
2022-12-25T06:06:40.713Z,0.00
2022-12-25T06:07:40.752Z,0.00
2022-12-25T06:08:40.739Z,0.00
2022-12-25T06:09:40.665Z,0.00
2022-12-25T06:10:40.658Z,0.00
2022-12-25T06:11:40.656Z,0.00
2022-12-25T06:12:40.655Z,0.00
2022-12-25T06:13:40.646Z,0.00
2022-12-25T06:14:40.617Z,0.00
2022-12-25T06:15:40.679Z,0.00
2022-12-25T06:16:40.653Z,0.00
2022-12-25T06:17:40.593Z,0.00
2022-12-25T06:18:40.567Z,0.00
2022-12-25T06:19:40.606Z,0.00
2022-12-25T06:20:40.592Z,0.00
2022-12-25T06:21:40.541Z,0.00
2022-12-25T06:22:40.554Z,0.00
2022-12-25T06:23:40.677Z,0.00
2022-12-25T06:24:40.545Z,0.00
2022-12-25T06:25:40.538Z,0.00
2022-12-25T06:26:40.482Z,0.00
2022-12-25T06:27:40.487Z,0.00
2022-12-25T06:28:40.481Z,0.00
2022-12-25T06:29:40.504Z,0.00
2022-12-25T06:30:40.457Z,0.00
2022-12-25T06:31:40.558Z,0.00
2022-12-25T06:32:40.483Z,0.00
2022-12-25T06:33:40.424Z,0.00
2022-12-25T06:34:40.423Z,0.00
2022-12-25T06:35:40.460Z,0.00
2022-12-25T06:36:40.395Z,0.00
2022-12-25T06:37:40.399Z,0.00
2022-12-25T06:38:40.483Z,0.00
2022-12-25T06:39:40.350Z,0.00
2022-12-25T06:40:40.334Z,0.00
2022-12-25T06:41:40.342Z,0.00
2022-12-25T06:42:40.357Z,0.00
2022-12-25T06:43:40.325Z,0.00
2022-12-25T06:44:40.329Z,0.00
2022-12-25T06:45:40.312Z,0.00
2022-12-25T06:46:40.327Z,0.00
2022-12-25T06:47:40.334Z,0.00
2022-12-25T06:48:40.267Z,0.00
2022-12-25T06:49:40.296Z,0.00
2022-12-25T06:50:40.264Z,0.00
2022-12-25T06:51:40.264Z,0.00
2022-12-25T06:52:40.216Z,0.00
2022-12-25T06:53:40.998Z,0.00
2022-12-25T06:54:40.205Z,0.00
2022-12-25T06:55:40.240Z,0.00
2022-12-25T06:56:40.147Z,1.00
2022-12-25T06:57:40.183Z,0.00
2022-12-25T06:58:40.108Z,1.00
2022-12-25T06:59:40.138Z,1.00
2022-12-25T07:00:40.244Z,1.00
2022-12-25T07:01:40.331Z,1.00
2022-12-25T07:02:40.227Z,2.00
2022-12-25T07:03:40.074Z,2.00
2022-12-25T07:04:40.110Z,2.00
2022-12-25T07:05:40.049Z,1.00
2022-12-25T07:06:40.054Z,1.00
2022-12-25T07:07:40.016Z,1.00
2022-12-25T07:08:40.019Z,2.00
2022-12-25T07:09:40.032Z,2.00
2022-12-25T07:10:39.985Z,1.00
2022-12-25T07:11:40.027Z,1.00
2022-12-25T07:12:39.956Z,5.00
2022-12-25T07:13:40.001Z,5.00
2022-12-25T07:14:39.951Z,4.00
2022-12-25T07:15:39.948Z,4.00
2022-12-25T07:16:39.966Z,7.00
2022-12-25T07:17:39.929Z,4.00
2022-12-25T07:18:39.981Z,3.00
2022-12-25T07:19:44.877Z,8.00
2022-12-25T07:20:39.877Z,7.00
2022-12-25T07:21:39.881Z,9.00
2022-12-25T07:22:39.938Z,10.00
2022-12-25T07:23:39.861Z,11.00
2022-12-25T07:24:39.866Z,12.00
2022-12-25T07:25:39.834Z,16.00
2022-12-25T07:26:39.835Z,15.00
2022-12-25T07:27:39.858Z,18.00
2022-12-25T07:28:39.802Z,18.00
2022-12-25T07:29:39.822Z,20.00
2022-12-25T07:30:39.802Z,16.00
2022-12-25T07:31:39.841Z,22.00
2022-12-25T07:32:39.796Z,22.00
2022-12-25T07:33:39.775Z,25.00
2022-12-25T07:34:39.782Z,31.00
2022-12-25T07:35:39.767Z,35.00
2022-12-25T07:36:39.737Z,42.00
2022-12-25T07:37:39.728Z,45.00
2022-12-25T07:38:39.712Z,53.00
2022-12-25T07:39:39.693Z,58.00
2022-12-25T07:40:39.752Z,62.00
2022-12-25T07:41:39.705Z,72.00
2022-12-25T07:42:39.681Z,74.00
2022-12-25T07:43:39.655Z,78.00
2022-12-25T07:44:39.633Z,78.00
2022-12-25T07:45:39.775Z,85.00
2022-12-25T07:46:39.628Z,87.00
2022-12-25T07:47:39.652Z,83.00
2022-12-25T07:48:39.636Z,85.00
2022-12-25T07:49:39.594Z,92.00
2022-12-25T07:50:39.584Z,93.00
2022-12-25T07:51:39.575Z,96.00
2022-12-25T07:52:43.457Z,105.00
2022-12-25T07:53:39.577Z,105.00
2022-12-25T07:54:39.546Z,102.00
2022-12-25T07:55:39.542Z,102.00
2022-12-25T07:56:39.556Z,109.00
2022-12-25T07:57:39.551Z,117.00
2022-12-25T07:58:39.543Z,129.00
2022-12-25T07:59:39.503Z,131.00
2022-12-25T08:00:39.476Z,137.00
2022-12-25T08:01:39.652Z,155.00
2022-12-25T08:02:39.706Z,181.00
2022-12-25T08:03:39.694Z,204.00
2022-12-25T08:04:39.496Z,260.00
2022-12-25T08:05:39.421Z,346.00
2022-12-25T08:06:39.416Z,391.00
2022-12-25T08:07:39.422Z,401.00
2022-12-25T08:08:39.382Z,418.00
2022-12-25T08:09:39.385Z,430.00
2022-12-25T08:10:39.428Z,454.00
2022-12-25T08:11:39.380Z,495.00
2022-12-25T08:12:39.343Z,517.00
2022-12-25T08:13:39.430Z,508.00
2022-12-25T08:14:39.333Z,440.00
2022-12-25T08:15:39.344Z,479.00
2022-12-25T08:16:39.363Z,462.00
2022-12-25T08:17:39.295Z,463.00
2022-12-25T08:18:39.319Z,468.00
2022-12-25T08:19:39.366Z,515.00
2022-12-25T08:20:39.284Z,575.00
2022-12-25T08:21:39.333Z,663.00
2022-12-25T08:22:39.283Z,742.00
2022-12-25T08:23:39.266Z,761.00
2022-12-25T08:24:39.250Z,734.00
2022-12-25T08:25:39.245Z,650.00
2022-12-25T08:26:39.230Z,593.00
2022-12-25T08:27:39.234Z,554.00
2022-12-25T08:28:39.183Z,475.00
2022-12-25T08:29:39.210Z,420.00
2022-12-25T08:30:39.234Z,373.00
2022-12-25T08:31:45.765Z,343.00
2022-12-25T08:32:39.209Z,330.00
2022-12-25T08:33:39.192Z,307.00
2022-12-25T08:34:39.195Z,283.00
2022-12-25T08:35:39.116Z,258.00
2022-12-25T08:36:39.161Z,257.00
2022-12-25T08:37:39.139Z,279.00
2022-12-25T08:38:39.120Z,273.00
2022-12-25T08:39:39.095Z,260.00
2022-12-25T08:40:39.117Z,257.00
2022-12-25T08:41:39.054Z,260.00
2022-12-25T08:42:39.070Z,262.00
2022-12-25T08:43:39.091Z,249.00
2022-12-25T08:44:39.024Z,237.00
2022-12-25T08:45:39.050Z,234.00
2022-12-25T08:46:39.001Z,228.00
2022-12-25T08:47:39.007Z,223.00
2022-12-25T08:48:39.017Z,209.00
2022-12-25T08:49:39.042Z,201.00
2022-12-25T08:50:39.032Z,206.00
2022-12-25T08:51:38.968Z,222.00
2022-12-25T08:52:38.947Z,229.00
2022-12-25T08:53:38.943Z,231.00
2022-12-25T08:54:38.951Z,229.00
2022-12-25T08:55:38.945Z,231.00
2022-12-25T08:56:38.916Z,216.00
2022-12-25T08:57:38.918Z,215.00
2022-12-25T08:58:38.893Z,226.00
2022-12-25T08:59:38.872Z,249.00
2022-12-25T09:00:38.864Z,258.00
2022-12-25T09:01:39.046Z,257.00
2022-12-25T09:02:38.979Z,243.00
2022-12-25T09:03:38.943Z,232.00
2022-12-25T09:04:38.874Z,237.00
2022-12-25T09:05:38.832Z,255.00
2022-12-25T09:06:38.820Z,276.00
2022-12-25T09:07:38.858Z,293.00
2022-12-25T09:08:44.026Z,301.00
2022-12-25T09:09:38.783Z,297.00
2022-12-25T09:10:38.753Z,269.00
2022-12-25T09:11:38.748Z,259.00
2022-12-25T09:12:38.817Z,280.00
2022-12-25T09:13:38.749Z,297.00
2022-12-25T09:14:38.725Z,300.00
2022-12-25T09:15:38.863Z,280.00
2022-12-25T09:16:38.731Z,282.00
2022-12-25T09:17:38.824Z,328.00
2022-12-25T09:18:38.700Z,386.00
2022-12-25T09:19:38.722Z,410.00
2022-12-25T09:20:38.683Z,399.00
2022-12-25T09:21:38.630Z,374.00
2022-12-25T09:22:38.819Z,362.00
2022-12-25T09:23:38.668Z,361.00
2022-12-25T09:24:38.624Z,352.00
2022-12-25T09:25:38.638Z,344.00
2022-12-25T09:26:38.608Z,341.00
2022-12-25T09:27:38.652Z,343.00
2022-12-25T09:28:38.596Z,338.00
2022-12-25T09:29:38.555Z,314.00
2022-12-25T09:30:38.581Z,296.00
2022-12-25T09:31:38.536Z,288.00
2022-12-25T09:32:38.637Z,288.00
2022-12-25T09:33:38.558Z,299.00
2022-12-25T09:34:38.548Z,325.00
2022-12-25T09:35:38.537Z,322.00
2022-12-25T09:36:38.507Z,315.00
2022-12-25T09:37:38.509Z,298.00
2022-12-25T09:38:38.513Z,288.00
2022-12-25T09:39:45.885Z,285.00
2022-12-25T09:40:38.542Z,297.00
2022-12-25T09:41:38.482Z,299.00
2022-12-25T09:42:38.457Z,285.00
2022-12-25T09:43:38.466Z,260.00
2022-12-25T09:44:38.533Z,226.00
2022-12-25T09:45:38.422Z,204.00
2022-12-25T09:46:38.509Z,205.00
2022-12-25T09:47:38.399Z,217.00
2022-12-25T09:48:38.527Z,221.00
2022-12-25T09:49:38.374Z,233.00
2022-12-25T09:50:38.413Z,266.00
2022-12-25T09:51:38.355Z,286.00
2022-12-25T09:52:38.340Z,289.00
2022-12-25T09:53:38.342Z,297.00
2022-12-25T09:54:38.417Z,302.00
2022-12-25T09:55:38.295Z,300.00
2022-12-25T09:56:38.374Z,311.00
2022-12-25T09:57:38.281Z,335.00
2022-12-25T09:58:38.396Z,334.00
2022-12-25T09:59:38.296Z,332.00
2022-12-25T10:00:38.269Z,351.00
2022-12-25T10:01:38.325Z,419.00
2022-12-25T10:02:38.574Z,481.00
2022-12-25T10:03:38.404Z,462.00
2022-12-25T10:04:40.929Z,472.00
2022-12-25T10:05:38.200Z,516.00
2022-12-25T10:06:38.221Z,529.00
2022-12-25T10:07:38.327Z,515.00
2022-12-25T10:08:38.184Z,500.00
2022-12-25T10:09:38.292Z,506.00
2022-12-25T10:10:38.186Z,524.00
2022-12-25T10:11:38.153Z,526.00
2022-12-25T10:12:38.135Z,514.00
2022-12-25T10:13:38.125Z,530.00
2022-12-25T10:14:38.120Z,571.00
2022-12-25T10:15:45.038Z,613.00
2022-12-25T10:16:38.247Z,618.00
2022-12-25T10:17:38.131Z,586.00
2022-12-25T10:18:38.089Z,546.00
2022-12-25T10:19:38.047Z,564.00
2022-12-25T10:20:38.043Z,586.00
2022-12-25T10:21:38.039Z,588.00
2022-12-25T10:22:38.038Z,587.00
2022-12-25T10:23:38.015Z,571.00
2022-12-25T10:24:38.044Z,553.00
2022-12-25T10:25:38.021Z,542.00
2022-12-25T10:26:38.045Z,524.00
2022-12-25T10:27:38.018Z,525.00
2022-12-25T10:28:38.052Z,558.00
2022-12-25T10:29:37.950Z,613.00
2022-12-25T10:30:37.929Z,682.00
2022-12-25T10:31:37.999Z,692.00
2022-12-25T10:32:38.579Z,637.00
2022-12-25T10:33:37.963Z,572.00
2022-12-25T10:34:38.588Z,594.00
2022-12-25T10:35:37.917Z,670.00
2022-12-25T10:36:37.933Z,721.00
2022-12-25T10:37:37.887Z,737.00
2022-12-25T10:38:37.919Z,732.00
2022-12-25T10:39:42.414Z,714.00
2022-12-25T10:40:37.934Z,742.00
2022-12-25T10:41:37.861Z,787.00
2022-12-25T10:42:37.849Z,835.00
2022-12-25T10:43:37.811Z,767.00
2022-12-25T10:44:37.919Z,711.00
2022-12-25T10:45:37.811Z,649.00
2022-12-25T10:46:37.873Z,624.00
2022-12-25T10:47:37.766Z,622.00
2022-12-25T10:48:37.867Z,675.00
2022-12-25T10:49:37.772Z,620.00
2022-12-25T10:50:37.777Z,515.00
2022-12-25T10:51:37.753Z,529.00
2022-12-25T10:52:37.741Z,557.00
2022-12-25T10:53:37.741Z,537.00
2022-12-25T10:54:37.722Z,501.00
2022-12-25T10:55:37.670Z,422.00
2022-12-25T10:56:37.708Z,327.00
2022-12-25T10:57:37.760Z,287.00
2022-12-25T10:58:37.736Z,331.00
2022-12-25T10:59:37.751Z,371.00
2022-12-25T11:00:37.656Z,373.00
2022-12-25T11:01:37.733Z,389.00
2022-12-25T11:02:37.952Z,390.00
2022-12-25T11:03:37.677Z,377.00
2022-12-25T11:04:37.628Z,358.00
2022-12-25T11:05:37.605Z,345.00
2022-12-25T11:06:37.586Z,434.00
2022-12-25T11:07:37.588Z,445.00
2022-12-25T11:08:37.568Z,450.00
2022-12-25T11:09:37.572Z,468.00
2022-12-25T11:10:37.578Z,431.00
2022-12-25T11:11:37.590Z,387.00
2022-12-25T11:12:37.530Z,409.00
2022-12-25T11:13:37.499Z,417.00
2022-12-25T11:14:37.519Z,502.00
2022-12-25T11:15:37.512Z,524.00
2022-12-25T11:16:37.617Z,590.00
2022-12-25T11:17:37.474Z,582.00
2022-12-25T11:18:37.476Z,499.00
2022-12-25T11:19:37.443Z,490.00
2022-12-25T11:20:39.202Z,561.00
2022-12-25T11:21:37.517Z,541.00
2022-12-25T11:22:37.461Z,468.00
2022-12-25T11:23:37.424Z,451.00
2022-12-25T11:24:37.459Z,433.00
2022-12-25T11:25:37.424Z,444.00
2022-12-25T11:26:37.386Z,424.00
2022-12-25T11:27:37.394Z,431.00
2022-12-25T11:28:37.384Z,490.00
2022-12-25T11:29:37.361Z,574.00
2022-12-25T11:30:37.346Z,634.00
2022-12-25T11:31:37.367Z,531.00
2022-12-25T11:32:37.331Z,443.00
2022-12-25T11:33:37.342Z,414.00
2022-12-25T11:34:37.341Z,429.00
2022-12-25T11:35:37.286Z,488.00
2022-12-25T11:36:37.305Z,550.00
2022-12-25T11:37:37.273Z,574.00
2022-12-25T11:38:37.293Z,600.00
2022-12-25T11:39:37.265Z,619.00
2022-12-25T11:40:37.279Z,590.00
2022-12-25T11:41:37.285Z,540.00
2022-12-25T11:42:37.230Z,476.00
2022-12-25T11:43:37.230Z,461.00
2022-12-25T11:44:37.248Z,456.00
2022-12-25T11:45:37.257Z,461.00
2022-12-25T11:46:37.262Z,479.00
2022-12-25T11:47:37.201Z,489.00
2022-12-25T11:48:37.189Z,487.00
2022-12-25T11:49:37.207Z,438.00
2022-12-25T11:50:37.161Z,395.00
2022-12-25T11:51:37.141Z,377.00
2022-12-25T11:52:37.153Z,382.00
2022-12-25T11:53:37.175Z,383.00
2022-12-25T11:54:37.156Z,404.00
2022-12-25T11:55:37.115Z,403.00
2022-12-25T11:56:37.139Z,416.00
2022-12-25T11:57:37.075Z,434.00
2022-12-25T11:58:37.083Z,440.00
2022-12-25T11:59:37.044Z,492.00
2022-12-25T12:00:37.047Z,572.00
2022-12-25T12:01:37.137Z,545.00
2022-12-25T12:02:37.250Z,584.00
2022-12-25T12:03:37.027Z,540.00
2022-12-25T12:04:42.283Z,486.00
2022-12-25T12:05:36.983Z,448.00
2022-12-25T12:06:37.008Z,451.00
2022-12-25T12:07:36.982Z,451.00
2022-12-25T12:08:36.978Z,434.00
2022-12-25T12:09:36.969Z,396.00
2022-12-25T12:10:36.950Z,382.00
2022-12-25T12:11:36.935Z,372.00
2022-12-25T12:12:36.975Z,349.00
2022-12-25T12:13:36.913Z,358.00
2022-12-25T12:14:36.954Z,380.00
2022-12-25T12:15:36.886Z,384.00
2022-12-25T12:16:36.957Z,407.00
2022-12-25T12:17:36.856Z,389.00
2022-12-25T12:18:36.972Z,376.00
2022-12-25T12:19:36.839Z,369.00
2022-12-25T12:20:36.888Z,367.00
2022-12-25T12:21:36.833Z,369.00
2022-12-25T12:22:36.865Z,377.00
2022-12-25T12:23:36.807Z,322.00
2022-12-25T12:24:36.790Z,284.00
2022-12-25T12:25:36.848Z,276.00
2022-12-25T12:26:36.827Z,292.00
2022-12-25T12:27:36.778Z,300.00
2022-12-25T12:28:36.772Z,287.00
2022-12-25T12:29:36.744Z,245.00
2022-12-25T12:30:36.766Z,221.00
2022-12-25T12:31:36.808Z,190.00
2022-12-25T12:32:36.757Z,187.00
2022-12-25T12:33:36.744Z,182.00
2022-12-25T12:34:36.720Z,180.00
2022-12-25T12:35:36.690Z,195.00
2022-12-25T12:36:37.071Z,214.00
2022-12-25T12:37:36.669Z,210.00
2022-12-25T12:38:36.657Z,221.00
2022-12-25T12:39:36.651Z,257.00
2022-12-25T12:40:36.693Z,334.00
2022-12-25T12:41:36.663Z,376.00
2022-12-25T12:42:36.648Z,415.00
2022-12-25T12:43:36.641Z,466.00
2022-12-25T12:44:36.639Z,492.00
2022-12-25T12:45:36.686Z,588.00
2022-12-25T12:46:36.695Z,622.00
2022-12-25T12:47:36.603Z,606.00
2022-12-25T12:48:36.559Z,577.00
2022-12-25T12:49:36.712Z,519.00
2022-12-25T12:50:36.570Z,467.00
2022-12-25T12:51:36.511Z,398.00
2022-12-25T12:52:36.586Z,360.00
2022-12-25T12:53:36.550Z,371.00
2022-12-25T12:54:36.511Z,353.00
2022-12-25T12:55:36.490Z,349.00
2022-12-25T12:56:36.493Z,349.00
2022-12-25T12:57:36.468Z,357.00